KNE309 OERK-UGTB
Flight info
| Callsign | KNE309 |
|---|---|
| Flight time | 3h 6m |
| Altitude | 35000 |
| Route | ALTAV H976 MUSRI P891 KUNRU DCT RALKA/N0464F360 G795 TASMI UL602 GADSI UM860 SRT DCT ERZ/N0445F370 DCT NOLGA N61 LAGAS |
| Aircraft | A320/M-SDE3FGHIRWY/LB1 |
Departure
| Time | 2026-04-27 12:05 |
|---|---|
| Airport | King Khalid International Airport (OERK) |
Arrival
| Time | 2026-04-27 15:11 |
|---|---|
| Airport | Tbilisi International Airport (UGTB) |
| Time | Latitude | Longitude | Altitude | Speed | Heading |
|---|---|---|---|---|---|
| 2026-04-27 11:26 | 24.96062 | 46.70327 | 2057 ft | 0 kts | 314° |
| 2026-04-27 11:52 | 24.96052 | 46.70339 | 2072 ft | 4 kts | 309° |
| 2026-04-27 11:53 | 24.96036 | 46.70363 | 2074 ft | 4 kts | 298° |
| 2026-04-27 11:53 | 24.96026 | 46.70390 | 2075 ft | 4 kts | 285° |
| 2026-04-27 11:53 | 24.96021 | 46.70419 | 2071 ft | 4 kts | 271° |
| 2026-04-27 11:53 | 24.96023 | 46.70448 | 2071 ft | 4 kts | 258° |
| 2026-04-27 11:54 | 24.96030 | 46.70476 | 2072 ft | 4 kts | 245° |
| 2026-04-27 11:54 | 24.96043 | 46.70502 | 2069 ft | 4 kts | 237° |
| 2026-04-27 11:54 | 24.96059 | 46.70526 | 2068 ft | 4 kts | 234° |
| 2026-04-27 11:54 | 24.96072 | 46.70551 | 2068 ft | 4 kts | 259° |
| 2026-04-27 11:55 | 24.96074 | 46.70562 | 2068 ft | 0 kts | 330° |
| 2026-04-27 11:58 | 24.96076 | 46.70561 | 2068 ft | 1 kts | 330° |
| 2026-04-27 11:58 | 24.96089 | 46.70553 | 2072 ft | 4 kts | 330° |
| 2026-04-27 11:58 | 24.96127 | 46.70529 | 2073 ft | 9 kts | 330° |
| 2026-04-27 11:58 | 24.96195 | 46.70486 | 2073 ft | 13 kts | 330° |
| 2026-04-27 11:59 | 24.96269 | 46.70440 | 2073 ft | 12 kts | 330° |
| 2026-04-27 11:59 | 24.96335 | 46.70400 | 2073 ft | 10 kts | 339° |
| 2026-04-27 11:59 | 24.96383 | 46.70426 | 2074 ft | 8 kts | 62° |
| 2026-04-27 11:59 | 24.96406 | 46.70473 | 2073 ft | 6 kts | 62° |
| 2026-04-27 12:00 | 24.96425 | 46.70511 | 2074 ft | 5 kts | 61° |
| 2026-04-27 12:00 | 24.96443 | 46.70545 | 2071 ft | 8 kts | 59° |
| 2026-04-27 12:00 | 24.96491 | 46.70604 | 2069 ft | 13 kts | 16° |
| 2026-04-27 12:00 | 24.96585 | 46.70558 | 2069 ft | 17 kts | 330° |
| 2026-04-27 12:01 | 24.96701 | 46.70485 | 2076 ft | 22 kts | 329° |
| 2026-04-27 12:01 | 24.96845 | 46.70394 | 2072 ft | 26 kts | 330° |
| 2026-04-27 12:01 | 24.97003 | 46.70293 | 2072 ft | 27 kts | 329° |
| 2026-04-27 12:01 | 24.97163 | 46.70192 | 2072 ft | 28 kts | 330° |
| 2026-04-27 12:02 | 24.97333 | 46.70085 | 2072 ft | 29 kts | 330° |
| 2026-04-27 12:02 | 24.97483 | 46.69989 | 2073 ft | 16 kts | 330° |
| 2026-04-27 12:02 | 24.97565 | 46.70008 | 2073 ft | 13 kts | 61° |
| 2026-04-27 12:02 | 24.97611 | 46.70096 | 2073 ft | 14 kts | 59° |
| 2026-04-27 12:03 | 24.97664 | 46.70196 | 2067 ft | 12 kts | 60° |
| 2026-04-27 12:03 | 24.97654 | 46.70229 | 2064 ft | 4 kts | 176° |
| 2026-04-27 12:03 | 24.97625 | 46.70243 | 2065 ft | 5 kts | 148° |
| 2026-04-27 12:03 | 24.97594 | 46.70264 | 2064 ft | 6 kts | 150° |
| 2026-04-27 12:04 | 24.97429 | 46.70366 | 2063 ft | 61 kts | 150° |
| 2026-04-27 12:04 | 24.96870 | 46.70720 | 2065 ft | 122 kts | 150° |
| 2026-04-27 12:04 | 24.95986 | 46.71277 | 2066 ft | 168 kts | 150° |
| 2026-04-27 12:04 | 24.94956 | 46.71929 | 2623 ft | 171 kts | 150° |
| 2026-04-27 12:05 | 24.93948 | 46.72619 | 3336 ft | 170 kts | 143° |
| 2026-04-27 12:05 | 24.93020 | 46.73432 | 3930 ft | 173 kts | 144° |
| 2026-04-27 12:05 | 24.92049 | 46.74328 | 4139 ft | 193 kts | 143° |
| 2026-04-27 12:05 | 24.90958 | 46.75342 | 4324 ft | 218 kts | 143° |
| 2026-04-27 12:06 | 24.89754 | 46.76463 | 4622 ft | 241 kts | 143° |
| 2026-04-27 12:06 | 24.88522 | 46.77815 | 5065 ft | 261 kts | 126° |
| 2026-04-27 12:06 | 24.88033 | 46.79790 | 5663 ft | 282 kts | 92° |
| 2026-04-27 12:06 | 24.88500 | 46.81934 | 6297 ft | 296 kts | 70° |
| 2026-04-27 12:07 | 24.89431 | 46.83949 | 7015 ft | 301 kts | 62° |
| 2026-04-27 12:07 | 24.90531 | 46.85931 | 7729 ft | 306 kts | 60° |
| 2026-04-27 12:07 | 24.91653 | 46.87939 | 8449 ft | 310 kts | 61° |
| 2026-04-27 12:07 | 24.92736 | 46.89997 | 9263 ft | 311 kts | 62° |
| 2026-04-27 12:08 | 24.93769 | 46.92109 | 9974 ft | 316 kts | 63° |
| 2026-04-27 12:08 | 24.94796 | 46.94328 | 10340 ft | 335 kts | 64° |
| 2026-04-27 12:08 | 24.95848 | 46.96679 | 10523 ft | 358 kts | 64° |
| 2026-04-27 12:08 | 24.96966 | 46.99223 | 10966 ft | 369 kts | 65° |
| 2026-04-27 12:09 | 24.98074 | 47.01754 | 11639 ft | 373 kts | 64° |
| 2026-04-27 12:09 | 24.99496 | 47.04106 | 12257 ft | 377 kts | 45° |
| 2026-04-27 12:09 | 25.01567 | 47.05866 | 12900 ft | 378 kts | 25° |
| 2026-04-27 12:09 | 25.04032 | 47.06787 | 13614 ft | 375 kts | 5° |
| 2026-04-27 12:10 | 25.06621 | 47.06814 | 14212 ft | 372 kts | 347° |
| 2026-04-27 12:10 | 25.09093 | 47.06025 | 14808 ft | 371 kts | 336° |
| 2026-04-27 12:10 | 25.11548 | 47.05111 | 15416 ft | 376 kts | 341° |
| 2026-04-27 12:10 | 25.14162 | 47.04672 | 15991 ft | 385 kts | 354° |
| 2026-04-27 12:11 | 25.16870 | 47.04884 | 16580 ft | 394 kts | 7° |
| 2026-04-27 12:11 | 25.19520 | 47.05760 | 17143 ft | 403 kts | 19° |
| 2026-04-27 12:11 | 25.22073 | 47.06977 | 17718 ft | 406 kts | 20° |
| 2026-04-27 12:11 | 25.24674 | 47.08222 | 18259 ft | 410 kts | 20° |
| 2026-04-27 12:12 | 25.27306 | 47.09481 | 18724 ft | 414 kts | 19° |
| 2026-04-27 12:12 | 25.29969 | 47.10756 | 19195 ft | 419 kts | 19° |
| 2026-04-27 12:12 | 25.32644 | 47.12040 | 19625 ft | 423 kts | 19° |
| 2026-04-27 12:12 | 25.35361 | 47.13344 | 20062 ft | 427 kts | 19° |
| 2026-04-27 12:13 | 25.38073 | 47.14666 | 20497 ft | 432 kts | 19° |
| 2026-04-27 12:13 | 25.40802 | 47.16016 | 20922 ft | 436 kts | 19° |
| 2026-04-27 12:13 | 25.43554 | 47.17386 | 21365 ft | 440 kts | 19° |
| 2026-04-27 12:13 | 25.46354 | 47.18754 | 21798 ft | 441 kts | 16° |
| 2026-04-27 12:14 | 25.49277 | 47.19803 | 22225 ft | 441 kts | 10° |
| 2026-04-27 12:14 | 25.51271 | 47.20446 | 22513 ft | 443 kts | 10° |
| 2026-04-27 12:15 | 25.53254 | 47.21080 | 22805 ft | 445 kts | 10° |
| 2026-04-27 12:16 | 25.56204 | 47.22019 | 23214 ft | 448 kts | 10° |
| 2026-04-27 12:16 | 25.59208 | 47.22980 | 23591 ft | 452 kts | 10° |
| 2026-04-27 12:16 | 25.62233 | 47.23949 | 23936 ft | 455 kts | 9° |
| 2026-04-27 12:16 | 25.65284 | 47.24930 | 24337 ft | 456 kts | 10° |
| 2026-04-27 12:17 | 25.68337 | 47.25917 | 24718 ft | 458 kts | 10° |
| 2026-04-27 12:17 | 25.71397 | 47.26907 | 25069 ft | 460 kts | 10° |
| 2026-04-27 12:17 | 25.74474 | 47.27942 | 25402 ft | 465 kts | 14° |
| 2026-04-27 12:17 | 25.77466 | 47.29406 | 25716 ft | 475 kts | 24° |
| 2026-04-27 12:18 | 25.80246 | 47.31376 | 26033 ft | 483 kts | 31° |
| 2026-04-27 12:18 | 25.82984 | 47.33557 | 26354 ft | 486 kts | 31° |
| 2026-04-27 12:18 | 25.85735 | 47.35746 | 26674 ft | 489 kts | 31° |
| 2026-04-27 12:18 | 25.88504 | 47.37944 | 26981 ft | 492 kts | 31° |
| 2026-04-27 12:19 | 25.91308 | 47.40166 | 27315 ft | 495 kts | 31° |
| 2026-04-27 12:19 | 25.94113 | 47.42389 | 27583 ft | 499 kts | 31° |
| 2026-04-27 12:19 | 25.96959 | 47.44644 | 27881 ft | 503 kts | 31° |
| 2026-04-27 12:19 | 25.99811 | 47.46905 | 28191 ft | 506 kts | 31° |
| 2026-04-27 12:20 | 26.02677 | 47.49182 | 28488 ft | 509 kts | 31° |
| 2026-04-27 12:20 | 26.05565 | 47.51483 | 28780 ft | 512 kts | 31° |
| 2026-04-27 12:20 | 26.08425 | 47.53762 | 29064 ft | 514 kts | 30° |
| 2026-04-27 12:20 | 26.11341 | 47.56084 | 29323 ft | 517 kts | 30° |
| 2026-04-27 12:21 | 26.14271 | 47.58414 | 29599 ft | 519 kts | 30° |
| 2026-04-27 12:21 | 26.17223 | 47.60761 | 29859 ft | 522 kts | 30° |
| 2026-04-27 12:21 | 26.20187 | 47.63120 | 30067 ft | 525 kts | 30° |
| 2026-04-27 12:21 | 26.23165 | 47.65497 | 30289 ft | 528 kts | 30° |
| 2026-04-27 12:22 | 26.26175 | 47.67844 | 30540 ft | 526 kts | 25° |
| 2026-04-27 12:22 | 26.29357 | 47.69788 | 30834 ft | 518 kts | 17° |
| 2026-04-27 12:22 | 26.32679 | 47.71263 | 31175 ft | 511 kts | 12° |
| 2026-04-27 12:22 | 26.35967 | 47.72600 | 31489 ft | 510 kts | 11° |
| 2026-04-27 12:23 | 26.39292 | 47.73955 | 31825 ft | 509 kts | 11° |
| 2026-04-27 12:23 | 26.42615 | 47.75314 | 32163 ft | 508 kts | 11° |
| 2026-04-27 12:23 | 26.45934 | 47.76669 | 32492 ft | 508 kts | 11° |
| 2026-04-27 12:23 | 26.49256 | 47.78023 | 32825 ft | 507 kts | 11° |
| 2026-04-27 12:24 | 26.52565 | 47.79372 | 33155 ft | 506 kts | 11° |
| 2026-04-27 12:24 | 26.55859 | 47.80715 | 33460 ft | 505 kts | 10° |
| 2026-04-27 12:24 | 26.59153 | 47.82061 | 33811 ft | 503 kts | 10° |
| 2026-04-27 12:24 | 26.62402 | 47.83389 | 34104 ft | 502 kts | 10° |
| 2026-04-27 12:25 | 26.65673 | 47.84727 | 34390 ft | 501 kts | 10° |
| 2026-04-27 12:25 | 26.68951 | 47.86066 | 34645 ft | 500 kts | 10° |
| 2026-04-27 12:25 | 26.72214 | 47.87403 | 34900 ft | 499 kts | 11° |
| 2026-04-27 12:25 | 26.75489 | 47.88572 | 35154 ft | 489 kts | 3° |
| 2026-04-27 12:26 | 26.78798 | 47.89438 | 35389 ft | 487 kts | 3° |
| 2026-04-27 12:26 | 26.82092 | 47.90291 | 35610 ft | 487 kts | 3° |
| 2026-04-27 12:26 | 26.85389 | 47.91146 | 35833 ft | 486 kts | 3° |
| 2026-04-27 12:26 | 26.88684 | 47.92003 | 36050 ft | 486 kts | 3° |
| 2026-04-27 12:27 | 26.91935 | 47.92849 | 36266 ft | 485 kts | 3° |
| 2026-04-27 12:27 | 26.95222 | 47.93703 | 36479 ft | 484 kts | 3° |
| 2026-04-27 12:27 | 26.98494 | 47.94556 | 36686 ft | 484 kts | 3° |
| 2026-04-27 12:27 | 27.01775 | 47.95415 | 36806 ft | 484 kts | 3° |
| 2026-04-27 12:28 | 27.05060 | 47.96225 | 36827 ft | 479 kts | 359° |
| 2026-04-27 12:28 | 27.11592 | 47.96797 | 36827 ft | 469 kts | 352° |
| 2026-04-27 12:29 | 27.18079 | 47.97203 | 36821 ft | 470 kts | 353° |
| 2026-04-27 12:29 | 27.24604 | 47.97618 | 36821 ft | 470 kts | 353° |
| 2026-04-27 12:30 | 27.31138 | 47.98030 | 36809 ft | 471 kts | 352° |
| 2026-04-27 12:30 | 27.37711 | 47.98570 | 36803 ft | 479 kts | 358° |
| 2026-04-27 12:31 | 27.44272 | 47.99656 | 36807 ft | 480 kts | 358° |
| 2026-04-27 12:31 | 27.50883 | 48.00765 | 36834 ft | 481 kts | 358° |
| 2026-04-27 12:32 | 27.57502 | 48.01875 | 36807 ft | 481 kts | 358° |
| 2026-04-27 12:32 | 27.64138 | 48.02983 | 36797 ft | 482 kts | 358° |
| 2026-04-27 12:33 | 27.70767 | 48.04087 | 36801 ft | 482 kts | 358° |
| 2026-04-27 12:33 | 27.77359 | 48.05180 | 36821 ft | 483 kts | 358° |
| 2026-04-27 12:34 | 27.84014 | 48.06287 | 36798 ft | 483 kts | 358° |
| 2026-04-27 12:34 | 27.90671 | 48.07399 | 36792 ft | 484 kts | 358° |
| 2026-04-27 12:35 | 27.97335 | 48.08518 | 36813 ft | 485 kts | 358° |
| 2026-04-27 12:35 | 28.04004 | 48.09640 | 36794 ft | 485 kts | 358° |
| 2026-04-27 12:36 | 28.10646 | 48.10751 | 36794 ft | 486 kts | 358° |
| 2026-04-27 12:36 | 28.17336 | 48.11877 | 36793 ft | 486 kts | 358° |
| 2026-04-27 12:37 | 28.24029 | 48.13004 | 36805 ft | 487 kts | 358° |
| 2026-04-27 12:37 | 28.30727 | 48.14134 | 36799 ft | 487 kts | 358° |
| 2026-04-27 12:38 | 28.37429 | 48.15268 | 36800 ft | 487 kts | 358° |
| 2026-04-27 12:38 | 28.44098 | 48.16399 | 36810 ft | 487 kts | 358° |
| 2026-04-27 12:39 | 28.50812 | 48.17532 | 36805 ft | 487 kts | 358° |
| 2026-04-27 12:39 | 28.57508 | 48.18630 | 36805 ft | 486 kts | 356° |
| 2026-04-27 12:40 | 28.64202 | 48.19548 | 36803 ft | 484 kts | 355° |
| 2026-04-27 12:40 | 28.70844 | 48.20390 | 36785 ft | 483 kts | 355° |
| 2026-04-27 12:41 | 28.77520 | 48.21287 | 36780 ft | 483 kts | 356° |
| 2026-04-27 12:41 | 28.84204 | 48.22225 | 36780 ft | 484 kts | 356° |
| 2026-04-27 12:42 | 28.90884 | 48.23160 | 36780 ft | 484 kts | 356° |
| 2026-04-27 12:42 | 28.97536 | 48.24085 | 36787 ft | 484 kts | 356° |
| 2026-04-27 12:43 | 29.04220 | 48.25014 | 36793 ft | 484 kts | 356° |
| 2026-04-27 12:43 | 29.10913 | 48.25955 | 36794 ft | 484 kts | 356° |
| 2026-04-27 12:44 | 29.17593 | 48.26891 | 36818 ft | 484 kts | 356° |
| 2026-04-27 12:44 | 29.24256 | 48.27815 | 36811 ft | 483 kts | 356° |
| 2026-04-27 12:45 | 29.30931 | 48.28742 | 36804 ft | 483 kts | 356° |
| 2026-04-27 12:45 | 29.37559 | 48.29645 | 36825 ft | 480 kts | 353° |
| 2026-04-27 12:45 | 29.40765 | 48.29671 | 36814 ft | 465 kts | 343° |
| 2026-04-27 12:46 | 29.43759 | 48.29182 | 36811 ft | 451 kts | 335° |
| 2026-04-27 12:46 | 29.46716 | 48.28175 | 36808 ft | 437 kts | 327° |
| 2026-04-27 12:46 | 29.49433 | 48.26727 | 36804 ft | 425 kts | 319° |
| 2026-04-27 12:47 | 29.54536 | 48.23346 | 36800 ft | 424 kts | 319° |
| 2026-04-27 12:47 | 29.59661 | 48.19978 | 36816 ft | 425 kts | 319° |
| 2026-04-27 12:48 | 29.64792 | 48.16608 | 36808 ft | 425 kts | 319° |
| 2026-04-27 12:48 | 29.69885 | 48.13246 | 36808 ft | 425 kts | 319° |
| 2026-04-27 12:49 | 29.75013 | 48.09859 | 36813 ft | 425 kts | 319° |
| 2026-04-27 12:49 | 29.80131 | 48.06471 | 36810 ft | 425 kts | 319° |
| 2026-04-27 12:50 | 29.85224 | 48.03096 | 36810 ft | 425 kts | 319° |
| 2026-04-27 12:50 | 29.90353 | 47.99693 | 36833 ft | 426 kts | 319° |
| 2026-04-27 12:51 | 29.95479 | 47.96279 | 36834 ft | 426 kts | 319° |
| 2026-04-27 12:51 | 30.00600 | 47.92833 | 36828 ft | 421 kts | 315° |
| 2026-04-27 12:51 | 30.02842 | 47.90818 | 36818 ft | 408 kts | 306° |
| 2026-04-27 12:52 | 30.04757 | 47.88467 | 36802 ft | 399 kts | 301° |
| 2026-04-27 12:52 | 30.08387 | 47.83599 | 36815 ft | 400 kts | 301° |
| 2026-04-27 12:53 | 30.13854 | 47.76297 | 36803 ft | 401 kts | 301° |
| 2026-04-27 12:53 | 30.17507 | 47.71422 | 36800 ft | 401 kts | 301° |
| 2026-04-27 12:54 | 30.21129 | 47.66579 | 36811 ft | 401 kts | 301° |
| 2026-04-27 12:54 | 30.24775 | 47.61696 | 36789 ft | 401 kts | 301° |
| 2026-04-27 12:55 | 30.28423 | 47.56802 | 36791 ft | 401 kts | 300° |
| 2026-04-27 12:55 | 30.32038 | 47.51936 | 36784 ft | 401 kts | 300° |
| 2026-04-27 12:56 | 30.35680 | 47.47048 | 36791 ft | 401 kts | 300° |
| 2026-04-27 12:56 | 30.39316 | 47.42165 | 36781 ft | 401 kts | 300° |
| 2026-04-27 12:57 | 30.42952 | 47.37263 | 36768 ft | 401 kts | 300° |
| 2026-04-27 12:57 | 30.45965 | 47.33188 | 36764 ft | 401 kts | 300° |
| 2026-04-27 12:58 | 30.50188 | 47.27471 | 36768 ft | 402 kts | 300° |
| 2026-04-27 12:58 | 30.53825 | 47.22543 | 36765 ft | 402 kts | 300° |
| 2026-04-27 12:59 | 30.56946 | 47.18511 | 36757 ft | 411 kts | 307° |
| 2026-04-27 12:59 | 30.61432 | 47.14265 | 36725 ft | 417 kts | 310° |
| 2026-04-27 13:00 | 30.66707 | 47.09364 | 36724 ft | 418 kts | 310° |
| 2026-04-27 13:00 | 30.70508 | 47.05818 | 36732 ft | 419 kts | 310° |
| 2026-04-27 13:01 | 30.75017 | 47.01601 | 36726 ft | 419 kts | 310° |
| 2026-04-27 13:01 | 30.79551 | 46.97342 | 36749 ft | 419 kts | 310° |
| 2026-04-27 13:02 | 30.84097 | 46.93072 | 36736 ft | 420 kts | 310° |
| 2026-04-27 13:02 | 30.88647 | 46.88805 | 36740 ft | 420 kts | 310° |
| 2026-04-27 13:03 | 30.93169 | 46.84557 | 36751 ft | 421 kts | 310° |
| 2026-04-27 13:03 | 30.97721 | 46.80271 | 36738 ft | 421 kts | 310° |
| 2026-04-27 13:04 | 31.02282 | 46.75968 | 36734 ft | 422 kts | 310° |
| 2026-04-27 13:04 | 31.06846 | 46.71656 | 36744 ft | 422 kts | 310° |
| 2026-04-27 13:05 | 31.11381 | 46.67372 | 36738 ft | 423 kts | 310° |
| 2026-04-27 13:05 | 31.15957 | 46.63050 | 36729 ft | 423 kts | 310° |
| 2026-04-27 13:06 | 31.20532 | 46.58717 | 36762 ft | 423 kts | 310° |
| 2026-04-27 13:06 | 31.25104 | 46.54379 | 36754 ft | 424 kts | 310° |
| 2026-04-27 13:07 | 31.29673 | 46.50035 | 36755 ft | 424 kts | 310° |
| 2026-04-27 13:07 | 31.34223 | 46.45705 | 36795 ft | 424 kts | 310° |
| 2026-04-27 13:08 | 31.38806 | 46.41348 | 36779 ft | 424 kts | 310° |
| 2026-04-27 13:08 | 31.43375 | 46.36993 | 36774 ft | 424 kts | 310° |
| 2026-04-27 13:09 | 31.47946 | 46.32625 | 36764 ft | 424 kts | 310° |
| 2026-04-27 13:09 | 31.52477 | 46.28280 | 36795 ft | 424 kts | 310° |
| 2026-04-27 13:10 | 31.57049 | 46.23902 | 36791 ft | 424 kts | 310° |
| 2026-04-27 13:10 | 31.61620 | 46.19528 | 36774 ft | 424 kts | 310° |
| 2026-04-27 13:11 | 31.66196 | 46.15144 | 36787 ft | 425 kts | 310° |
| 2026-04-27 13:11 | 31.70766 | 46.10751 | 36791 ft | 425 kts | 310° |
| 2026-04-27 13:12 | 31.75311 | 46.06359 | 36788 ft | 425 kts | 310° |
| 2026-04-27 13:12 | 31.79842 | 46.01913 | 36805 ft | 425 kts | 309° |
| 2026-04-27 13:13 | 31.84354 | 45.97424 | 36787 ft | 425 kts | 309° |
| 2026-04-27 13:13 | 31.88869 | 45.92927 | 36779 ft | 425 kts | 309° |
| 2026-04-27 13:14 | 31.93358 | 45.88463 | 36793 ft | 426 kts | 309° |
| 2026-04-27 13:14 | 31.97885 | 45.83961 | 36777 ft | 426 kts | 309° |
| 2026-04-27 13:15 | 32.02413 | 45.79449 | 36786 ft | 427 kts | 309° |
| 2026-04-27 13:15 | 32.06945 | 45.74925 | 36796 ft | 427 kts | 309° |
| 2026-04-27 13:16 | 32.11473 | 45.70397 | 36784 ft | 427 kts | 309° |
| 2026-04-27 13:16 | 32.15966 | 45.65897 | 36788 ft | 427 kts | 309° |
| 2026-04-27 13:17 | 32.20495 | 45.61359 | 36805 ft | 427 kts | 309° |
| 2026-04-27 13:17 | 32.25017 | 45.56831 | 36796 ft | 427 kts | 309° |
| 2026-04-27 13:18 | 32.29553 | 45.52284 | 36796 ft | 427 kts | 309° |
| 2026-04-27 13:18 | 32.34068 | 45.47738 | 36816 ft | 427 kts | 310° |
| 2026-04-27 13:19 | 32.38557 | 45.43209 | 36801 ft | 427 kts | 310° |
| 2026-04-27 13:19 | 32.43080 | 45.38642 | 36802 ft | 427 kts | 310° |
| 2026-04-27 13:20 | 32.47603 | 45.34078 | 36819 ft | 428 kts | 310° |
| 2026-04-27 13:20 | 32.52125 | 45.29492 | 36810 ft | 428 kts | 310° |
| 2026-04-27 13:21 | 32.56821 | 45.25103 | 36817 ft | 437 kts | 316° |
| 2026-04-27 13:21 | 32.61890 | 45.21106 | 36830 ft | 437 kts | 316° |
| 2026-04-27 13:22 | 32.66909 | 45.17130 | 36818 ft | 437 kts | 316° |
| 2026-04-27 13:22 | 32.71967 | 45.13115 | 36814 ft | 437 kts | 316° |
| 2026-04-27 13:23 | 32.77026 | 45.09087 | 36835 ft | 438 kts | 316° |
| 2026-04-27 13:23 | 32.82091 | 45.05045 | 36823 ft | 438 kts | 316° |
| 2026-04-27 13:24 | 32.87154 | 45.01013 | 36848 ft | 439 kts | 317° |
| 2026-04-27 13:24 | 32.92202 | 44.96987 | 36854 ft | 439 kts | 317° |
| 2026-04-27 13:25 | 32.97275 | 44.92927 | 36850 ft | 439 kts | 317° |
| 2026-04-27 13:25 | 33.02338 | 44.88854 | 36852 ft | 440 kts | 317° |
| 2026-04-27 13:26 | 33.07414 | 44.84782 | 36850 ft | 440 kts | 317° |
| 2026-04-27 13:26 | 33.12472 | 44.80738 | 36848 ft | 440 kts | 317° |
| 2026-04-27 13:27 | 33.17555 | 44.76664 | 36871 ft | 441 kts | 319° |
| 2026-04-27 13:27 | 33.23290 | 44.73700 | 36867 ft | 463 kts | 339° |
| 2026-04-27 13:28 | 33.26511 | 44.73160 | 36870 ft | 474 kts | 350° |
| 2026-04-27 13:28 | 33.29829 | 44.73058 | 36866 ft | 476 kts | 351° |
| 2026-04-27 13:28 | 33.36442 | 44.72868 | 36868 ft | 476 kts | 351° |
| 2026-04-27 13:29 | 33.43060 | 44.72663 | 36864 ft | 476 kts | 351° |
| 2026-04-27 13:29 | 33.49632 | 44.72453 | 36866 ft | 476 kts | 351° |
| 2026-04-27 13:30 | 33.56259 | 44.72236 | 36889 ft | 476 kts | 351° |
| 2026-04-27 13:30 | 33.62890 | 44.72029 | 36880 ft | 476 kts | 351° |
| 2026-04-27 13:31 | 33.69515 | 44.71824 | 36878 ft | 476 kts | 351° |
| 2026-04-27 13:31 | 33.76080 | 44.71616 | 36893 ft | 476 kts | 351° |
| 2026-04-27 13:32 | 33.82696 | 44.71407 | 36876 ft | 476 kts | 351° |
| 2026-04-27 13:32 | 33.89311 | 44.71200 | 36873 ft | 475 kts | 351° |
| 2026-04-27 13:33 | 33.95933 | 44.70992 | 36876 ft | 475 kts | 352° |
| 2026-04-27 13:33 | 34.02489 | 44.70783 | 36870 ft | 475 kts | 352° |
| 2026-04-27 13:34 | 34.09098 | 44.70578 | 36864 ft | 475 kts | 352° |
| 2026-04-27 13:34 | 34.15697 | 44.70369 | 36881 ft | 475 kts | 352° |
| 2026-04-27 13:35 | 34.22302 | 44.70160 | 36879 ft | 474 kts | 352° |
| 2026-04-27 13:35 | 34.28852 | 44.69935 | 36878 ft | 474 kts | 352° |
| 2026-04-27 13:36 | 34.35443 | 44.69729 | 36882 ft | 474 kts | 352° |
| 2026-04-27 13:36 | 34.42020 | 44.69525 | 36884 ft | 473 kts | 352° |
| 2026-04-27 13:37 | 34.48595 | 44.69226 | 36877 ft | 468 kts | 347° |
| 2026-04-27 13:37 | 34.54732 | 44.67359 | 36888 ft | 453 kts | 331° |
| 2026-04-27 13:38 | 34.60590 | 44.64556 | 36881 ft | 452 kts | 331° |
| 2026-04-27 13:38 | 34.66434 | 44.61714 | 36881 ft | 452 kts | 331° |
| 2026-04-27 13:39 | 34.72286 | 44.58883 | 36893 ft | 453 kts | 331° |
| 2026-04-27 13:39 | 34.78108 | 44.56086 | 36879 ft | 452 kts | 331° |
| 2026-04-27 13:40 | 34.83962 | 44.53270 | 36876 ft | 452 kts | 330° |
| 2026-04-27 13:40 | 34.89807 | 44.50426 | 36876 ft | 452 kts | 330° |
| 2026-04-27 13:41 | 34.95654 | 44.47580 | 36885 ft | 453 kts | 330° |
| 2026-04-27 13:41 | 35.01504 | 44.44734 | 36900 ft | 453 kts | 330° |
| 2026-04-27 13:42 | 35.07335 | 44.41907 | 36923 ft | 453 kts | 330° |
| 2026-04-27 13:42 | 35.13192 | 44.39060 | 36911 ft | 453 kts | 330° |
| 2026-04-27 13:43 | 35.19052 | 44.36201 | 36900 ft | 453 kts | 330° |
| 2026-04-27 13:43 | 35.24907 | 44.33346 | 36913 ft | 453 kts | 330° |
| 2026-04-27 13:44 | 35.30758 | 44.30472 | 36907 ft | 452 kts | 329° |
| 2026-04-27 13:44 | 35.36508 | 44.27519 | 36900 ft | 451 kts | 329° |
| 2026-04-27 13:45 | 35.42281 | 44.24501 | 36898 ft | 451 kts | 329° |
| 2026-04-27 13:45 | 35.48069 | 44.21504 | 36905 ft | 452 kts | 329° |
| 2026-04-27 13:46 | 35.53874 | 44.18513 | 36898 ft | 452 kts | 329° |
| 2026-04-27 13:46 | 35.59631 | 44.15546 | 36901 ft | 452 kts | 329° |
| 2026-04-27 13:47 | 35.65442 | 44.12544 | 36897 ft | 452 kts | 329° |
| 2026-04-27 13:47 | 35.71236 | 44.09534 | 36909 ft | 453 kts | 329° |
| 2026-04-27 13:48 | 35.77045 | 44.06510 | 36917 ft | 453 kts | 329° |
| 2026-04-27 13:48 | 35.82816 | 44.03508 | 36915 ft | 453 kts | 329° |
| 2026-04-27 13:49 | 35.88613 | 44.00485 | 36911 ft | 452 kts | 329° |
| 2026-04-27 13:49 | 35.94411 | 43.97466 | 36919 ft | 452 kts | 329° |
| 2026-04-27 13:50 | 36.00199 | 43.94433 | 36917 ft | 452 kts | 329° |
| 2026-04-27 13:50 | 36.05985 | 43.91399 | 36929 ft | 452 kts | 329° |
| 2026-04-27 13:51 | 36.11742 | 43.88392 | 36928 ft | 452 kts | 329° |
| 2026-04-27 13:51 | 36.17537 | 43.85351 | 36931 ft | 452 kts | 329° |
| 2026-04-27 13:52 | 36.23331 | 43.82297 | 36939 ft | 452 kts | 329° |
| 2026-04-27 13:52 | 36.29132 | 43.79238 | 36928 ft | 453 kts | 329° |
| 2026-04-27 13:53 | 36.37820 | 43.74745 | 36929 ft | 453 kts | 330° |
| 2026-04-27 13:54 | 36.43646 | 43.71742 | 36909 ft | 454 kts | 330° |
| 2026-04-27 13:54 | 36.49485 | 43.68713 | 36905 ft | 454 kts | 330° |
| 2026-04-27 13:55 | 36.55317 | 43.65673 | 36919 ft | 455 kts | 330° |
| 2026-04-27 13:55 | 36.61127 | 43.62642 | 36920 ft | 456 kts | 330° |
| 2026-04-27 13:56 | 36.66982 | 43.59587 | 36928 ft | 457 kts | 330° |
| 2026-04-27 13:56 | 36.72839 | 43.56523 | 36934 ft | 457 kts | 330° |
| 2026-04-27 13:57 | 36.78685 | 43.53401 | 36945 ft | 456 kts | 329° |
| 2026-04-27 13:57 | 36.84423 | 43.50176 | 36951 ft | 455 kts | 329° |
| 2026-04-27 13:58 | 36.90189 | 43.46899 | 36955 ft | 455 kts | 329° |
| 2026-04-27 13:58 | 36.95969 | 43.43646 | 36974 ft | 456 kts | 329° |
| 2026-04-27 13:59 | 37.01767 | 43.40399 | 36980 ft | 456 kts | 330° |
| 2026-04-27 13:59 | 37.07562 | 43.37149 | 36990 ft | 456 kts | 330° |
| 2026-04-27 14:00 | 37.13354 | 43.33897 | 37006 ft | 456 kts | 330° |
| 2026-04-27 14:00 | 37.19110 | 43.30649 | 37012 ft | 456 kts | 330° |
| 2026-04-27 14:01 | 37.24897 | 43.27379 | 37003 ft | 457 kts | 330° |
| 2026-04-27 14:01 | 37.30650 | 43.24005 | 37027 ft | 452 kts | 323° |
| 2026-04-27 14:02 | 37.35435 | 43.19129 | 37017 ft | 437 kts | 306° |
| 2026-04-27 14:02 | 37.38753 | 43.12876 | 37022 ft | 427 kts | 292° |
| 2026-04-27 14:03 | 37.41570 | 43.06295 | 37032 ft | 428 kts | 293° |
| 2026-04-27 14:03 | 37.44383 | 42.99699 | 37011 ft | 428 kts | 292° |
| 2026-04-27 14:04 | 37.47164 | 42.93150 | 37002 ft | 427 kts | 292° |
| 2026-04-27 14:04 | 37.49969 | 42.86522 | 37030 ft | 428 kts | 293° |
| 2026-04-27 14:05 | 37.52770 | 42.79902 | 37019 ft | 429 kts | 293° |
| 2026-04-27 14:05 | 37.55579 | 42.73271 | 37009 ft | 429 kts | 293° |
| 2026-04-27 14:06 | 37.58363 | 42.66668 | 37010 ft | 429 kts | 293° |
| 2026-04-27 14:06 | 37.61163 | 42.60011 | 37014 ft | 430 kts | 293° |
| 2026-04-27 14:07 | 37.63965 | 42.53337 | 37005 ft | 430 kts | 293° |
| 2026-04-27 14:07 | 37.66764 | 42.46660 | 37005 ft | 431 kts | 293° |
| 2026-04-27 14:08 | 37.69551 | 42.40016 | 37100 ft | 431 kts | 293° |
| 2026-04-27 14:08 | 37.70952 | 42.36672 | 37357 ft | 430 kts | 293° |
| 2026-04-27 14:08 | 37.72352 | 42.33329 | 37640 ft | 430 kts | 293° |
| 2026-04-27 14:08 | 37.73749 | 42.29987 | 37880 ft | 429 kts | 293° |
| 2026-04-27 14:09 | 37.75139 | 42.26650 | 37986 ft | 431 kts | 293° |
| 2026-04-27 14:09 | 37.77927 | 42.19939 | 38015 ft | 431 kts | 293° |
| 2026-04-27 14:10 | 37.80699 | 42.13273 | 37998 ft | 431 kts | 293° |
| 2026-04-27 14:10 | 37.83488 | 42.06556 | 37997 ft | 431 kts | 293° |
| 2026-04-27 14:11 | 37.86266 | 41.99841 | 37996 ft | 431 kts | 293° |
| 2026-04-27 14:11 | 37.89240 | 41.93257 | 37991 ft | 436 kts | 303° |
| 2026-04-27 14:11 | 37.91296 | 41.90454 | 37992 ft | 443 kts | 314° |
| 2026-04-27 14:12 | 37.93835 | 41.88122 | 37990 ft | 450 kts | 326° |
| 2026-04-27 14:12 | 37.96658 | 41.86474 | 37997 ft | 458 kts | 337° |
| 2026-04-27 14:12 | 37.99746 | 41.85397 | 37995 ft | 461 kts | 341° |
| 2026-04-27 14:13 | 38.05972 | 41.83401 | 38011 ft | 462 kts | 341° |
| 2026-04-27 14:13 | 38.12228 | 41.81396 | 38007 ft | 463 kts | 341° |
| 2026-04-27 14:14 | 38.18432 | 41.79390 | 38017 ft | 463 kts | 341° |
| 2026-04-27 14:14 | 38.24687 | 41.77371 | 38031 ft | 464 kts | 341° |
| 2026-04-27 14:15 | 38.30945 | 41.75349 | 38024 ft | 464 kts | 341° |
| 2026-04-27 14:15 | 38.37227 | 41.73310 | 38031 ft | 465 kts | 341° |
| 2026-04-27 14:16 | 38.43492 | 41.71273 | 38043 ft | 464 kts | 341° |
| 2026-04-27 14:16 | 38.49713 | 41.69250 | 38046 ft | 465 kts | 341° |
| 2026-04-27 14:17 | 38.55977 | 41.67211 | 38056 ft | 465 kts | 341° |
| 2026-04-27 14:17 | 38.62239 | 41.65168 | 38063 ft | 464 kts | 341° |
| 2026-04-27 14:18 | 38.68489 | 41.63124 | 38090 ft | 463 kts | 342° |
| 2026-04-27 14:18 | 38.74687 | 41.61093 | 38082 ft | 462 kts | 341° |
| 2026-04-27 14:19 | 38.80908 | 41.59048 | 38090 ft | 461 kts | 342° |
| 2026-04-27 14:19 | 38.87109 | 41.57021 | 38078 ft | 460 kts | 342° |
| 2026-04-27 14:20 | 38.93319 | 41.54977 | 38073 ft | 460 kts | 342° |
| 2026-04-27 14:20 | 38.98128 | 41.53389 | 38078 ft | 459 kts | 342° |
| 2026-04-27 14:21 | 39.03320 | 41.51671 | 38066 ft | 459 kts | 342° |
| 2026-04-27 14:22 | 39.05827 | 41.50838 | 38062 ft | 459 kts | 342° |
| 2026-04-27 14:23 | 39.07450 | 41.50300 | 38062 ft | 459 kts | 342° |
| 2026-04-27 14:24 | 39.11156 | 41.49072 | 38064 ft | 458 kts | 342° |
| 2026-04-27 14:24 | 39.11557 | 41.48939 | 38064 ft | 458 kts | 342° |
| 2026-04-27 14:25 | 39.13244 | 41.48379 | 38060 ft | 458 kts | 342° |
| 2026-04-27 14:28 | 39.15142 | 41.47752 | 38088 ft | 459 kts | 342° |
| 2026-04-27 14:28 | 39.15209 | 41.47730 | 38088 ft | 459 kts | 342° |
| 2026-04-27 14:29 | 39.21212 | 41.45731 | 38061 ft | 456 kts | 342° |
| 2026-04-27 14:29 | 39.27317 | 41.43703 | 38062 ft | 455 kts | 342° |
| 2026-04-27 14:30 | 39.33451 | 41.41654 | 38066 ft | 455 kts | 342° |
| 2026-04-27 14:30 | 39.39592 | 41.39600 | 38082 ft | 455 kts | 342° |
| 2026-04-27 14:31 | 39.45718 | 41.37551 | 38093 ft | 455 kts | 342° |
| 2026-04-27 14:31 | 39.51845 | 41.35500 | 38087 ft | 454 kts | 342° |
| 2026-04-27 14:32 | 39.54776 | 41.34518 | 38094 ft | 454 kts | 342° |
| 2026-04-27 14:32 | 39.60870 | 41.32471 | 38107 ft | 454 kts | 342° |
| 2026-04-27 14:33 | 39.66941 | 41.30427 | 38109 ft | 453 kts | 342° |
| 2026-04-27 14:33 | 39.73044 | 41.28365 | 38101 ft | 453 kts | 342° |
| 2026-04-27 14:34 | 39.79142 | 41.26315 | 38101 ft | 453 kts | 342° |
| 2026-04-27 14:34 | 39.85234 | 41.24254 | 38104 ft | 452 kts | 342° |
| 2026-04-27 14:35 | 39.91418 | 41.22904 | 38089 ft | 457 kts | 358° |
| 2026-04-27 14:35 | 39.94589 | 41.23345 | 38088 ft | 461 kts | 10° |
| 2026-04-27 14:35 | 39.97653 | 41.24589 | 38097 ft | 464 kts | 22° |
| 2026-04-27 14:35 | 40.00482 | 41.26589 | 38105 ft | 467 kts | 33° |
| 2026-04-27 14:36 | 40.03000 | 41.29266 | 38105 ft | 468 kts | 41° |
| 2026-04-27 14:36 | 40.07835 | 41.34939 | 38114 ft | 468 kts | 41° |
| 2026-04-27 14:37 | 40.12687 | 41.40629 | 38105 ft | 468 kts | 41° |
| 2026-04-27 14:37 | 40.17536 | 41.46330 | 38118 ft | 469 kts | 41° |
| 2026-04-27 14:38 | 40.22346 | 41.52003 | 38122 ft | 469 kts | 41° |
| 2026-04-27 14:38 | 40.27200 | 41.57731 | 38126 ft | 470 kts | 41° |
| 2026-04-27 14:39 | 40.32049 | 41.63482 | 38138 ft | 470 kts | 41° |
| 2026-04-27 14:39 | 40.36895 | 41.69232 | 38131 ft | 470 kts | 41° |
| 2026-04-27 14:40 | 40.41699 | 41.74941 | 38131 ft | 470 kts | 41° |
| 2026-04-27 14:40 | 40.46537 | 41.80693 | 38137 ft | 470 kts | 41° |
| 2026-04-27 14:41 | 40.51396 | 41.86486 | 38145 ft | 470 kts | 41° |
| 2026-04-27 14:41 | 40.56237 | 41.92274 | 38139 ft | 470 kts | 41° |
| 2026-04-27 14:42 | 40.60258 | 41.97099 | 38136 ft | 471 kts | 41° |
| 2026-04-27 14:42 | 40.65874 | 42.03850 | 38157 ft | 470 kts | 41° |
| 2026-04-27 14:43 | 40.70691 | 42.09668 | 38155 ft | 470 kts | 41° |
| 2026-04-27 14:43 | 40.74706 | 42.14504 | 38157 ft | 470 kts | 41° |
| 2026-04-27 14:44 | 40.79535 | 42.20321 | 38169 ft | 470 kts | 41° |
| 2026-04-27 14:44 | 40.84360 | 42.26165 | 38169 ft | 470 kts | 41° |
| 2026-04-27 14:45 | 40.89182 | 42.32016 | 38168 ft | 470 kts | 41° |
| 2026-04-27 14:45 | 40.94000 | 42.37860 | 38172 ft | 471 kts | 41° |
| 2026-04-27 14:46 | 40.98819 | 42.43726 | 38169 ft | 471 kts | 42° |
| 2026-04-27 14:46 | 41.03643 | 42.49611 | 38166 ft | 471 kts | 42° |
| 2026-04-27 14:47 | 41.08456 | 42.55505 | 38175 ft | 471 kts | 42° |
| 2026-04-27 14:47 | 41.13240 | 42.61367 | 38170 ft | 471 kts | 42° |
| 2026-04-27 14:48 | 41.18055 | 42.67281 | 38181 ft | 472 kts | 42° |
| 2026-04-27 14:48 | 41.25242 | 42.76127 | 38165 ft | 472 kts | 42° |
| 2026-04-27 14:49 | 41.30048 | 42.82067 | 38165 ft | 472 kts | 42° |
| 2026-04-27 14:49 | 41.34858 | 42.88014 | 38172 ft | 472 kts | 42° |
| 2026-04-27 14:50 | 41.39550 | 42.94149 | 37422 ft | 478 kts | 51° |
| 2026-04-27 14:50 | 41.41428 | 42.97806 | 36580 ft | 480 kts | 62° |
| 2026-04-27 14:50 | 41.42820 | 43.01787 | 35790 ft | 480 kts | 71° |
| 2026-04-27 14:51 | 41.43757 | 43.06047 | 34917 ft | 481 kts | 80° |
| 2026-04-27 14:51 | 41.44298 | 43.10316 | 34053 ft | 483 kts | 83° |
| 2026-04-27 14:51 | 41.44825 | 43.14742 | 33079 ft | 484 kts | 83° |
| 2026-04-27 14:51 | 41.45356 | 43.19186 | 32162 ft | 485 kts | 83° |
| 2026-04-27 14:52 | 41.45883 | 43.23583 | 31631 ft | 477 kts | 83° |
| 2026-04-27 14:52 | 41.46402 | 43.27934 | 30982 ft | 473 kts | 83° |
| 2026-04-27 14:52 | 41.46910 | 43.32239 | 30354 ft | 469 kts | 83° |
| 2026-04-27 14:52 | 41.47410 | 43.36513 | 29675 ft | 464 kts | 83° |
| 2026-04-27 14:53 | 41.47900 | 43.40721 | 29073 ft | 457 kts | 83° |
| 2026-04-27 14:53 | 41.48379 | 43.44843 | 28492 ft | 451 kts | 83° |
| 2026-04-27 14:53 | 41.48857 | 43.48950 | 27896 ft | 446 kts | 82° |
| 2026-04-27 14:53 | 41.49327 | 43.53017 | 27312 ft | 442 kts | 84° |
| 2026-04-27 14:54 | 41.49790 | 43.57048 | 26737 ft | 438 kts | 82° |
| 2026-04-27 14:54 | 41.50244 | 43.60997 | 26173 ft | 434 kts | 83° |
| 2026-04-27 14:54 | 41.50699 | 43.64973 | 25634 ft | 430 kts | 82° |
| 2026-04-27 14:54 | 41.51147 | 43.68898 | 25091 ft | 426 kts | 82° |
| 2026-04-27 14:55 | 41.51593 | 43.72789 | 24568 ft | 422 kts | 82° |
| 2026-04-27 14:55 | 41.52035 | 43.76641 | 24054 ft | 418 kts | 81° |
| 2026-04-27 14:55 | 41.52467 | 43.80452 | 23520 ft | 414 kts | 81° |
| 2026-04-27 14:55 | 41.52890 | 43.84228 | 23020 ft | 409 kts | 81° |
| 2026-04-27 14:56 | 41.53296 | 43.87860 | 22559 ft | 404 kts | 81° |
| 2026-04-27 14:56 | 41.53715 | 43.91601 | 22077 ft | 399 kts | 81° |
| 2026-04-27 14:56 | 41.54115 | 43.95193 | 21615 ft | 395 kts | 81° |
| 2026-04-27 14:56 | 41.54516 | 43.98806 | 21134 ft | 393 kts | 82° |
| 2026-04-27 14:57 | 41.54916 | 44.02408 | 20649 ft | 390 kts | 82° |
| 2026-04-27 14:57 | 41.55311 | 44.05984 | 20154 ft | 389 kts | 82° |
| 2026-04-27 14:57 | 41.55704 | 44.09543 | 19653 ft | 388 kts | 82° |
| 2026-04-27 14:57 | 41.56098 | 44.13105 | 19153 ft | 387 kts | 82° |
| 2026-04-27 14:58 | 41.56488 | 44.16652 | 18654 ft | 387 kts | 82° |
| 2026-04-27 14:58 | 41.56877 | 44.20210 | 18129 ft | 387 kts | 83° |
| 2026-04-27 14:58 | 41.56998 | 44.23781 | 17618 ft | 384 kts | 94° |
| 2026-04-27 14:58 | 41.56668 | 44.27241 | 17131 ft | 380 kts | 102° |
| 2026-04-27 14:59 | 41.56210 | 44.30699 | 16651 ft | 377 kts | 101° |
| 2026-04-27 14:59 | 41.55759 | 44.34134 | 16189 ft | 374 kts | 101° |
| 2026-04-27 14:59 | 41.55313 | 44.37558 | 15728 ft | 373 kts | 101° |
| 2026-04-27 14:59 | 41.54870 | 44.40960 | 15252 ft | 371 kts | 101° |
| 2026-04-27 15:00 | 41.54429 | 44.44336 | 14794 ft | 369 kts | 101° |
| 2026-04-27 15:00 | 41.53987 | 44.47702 | 14332 ft | 367 kts | 101° |
| 2026-04-27 15:00 | 41.53545 | 44.51066 | 13863 ft | 366 kts | 100° |
| 2026-04-27 15:00 | 41.53106 | 44.54402 | 13357 ft | 363 kts | 100° |
| 2026-04-27 15:01 | 41.52666 | 44.57734 | 12883 ft | 361 kts | 100° |
| 2026-04-27 15:01 | 41.52228 | 44.61045 | 12406 ft | 359 kts | 100° |
| 2026-04-27 15:01 | 41.51794 | 44.64307 | 11931 ft | 356 kts | 101° |
| 2026-04-27 15:01 | 41.51362 | 44.67556 | 11456 ft | 354 kts | 101° |
| 2026-04-27 15:02 | 41.50937 | 44.70741 | 10974 ft | 354 kts | 101° |
| 2026-04-27 15:02 | 41.50504 | 44.73956 | 10522 ft | 351 kts | 101° |
| 2026-04-27 15:02 | 41.50079 | 44.77127 | 10299 ft | 341 kts | 101° |
| 2026-04-27 15:02 | 41.49672 | 44.80180 | 10175 ft | 329 kts | 101° |
| 2026-04-27 15:03 | 41.49274 | 44.83147 | 9978 ft | 321 kts | 101° |
| 2026-04-27 15:03 | 41.48880 | 44.86034 | 9795 ft | 314 kts | 101° |
| 2026-04-27 15:03 | 41.48487 | 44.88893 | 9273 ft | 312 kts | 100° |
| 2026-04-27 15:03 | 41.48099 | 44.91739 | 8524 ft | 314 kts | 99° |
| 2026-04-27 15:04 | 41.47710 | 44.94588 | 7914 ft | 308 kts | 99° |
| 2026-04-27 15:04 | 41.47329 | 44.97382 | 7356 ft | 307 kts | 99° |
| 2026-04-27 15:04 | 41.46946 | 45.00189 | 6995 ft | 304 kts | 99° |
| 2026-04-27 15:04 | 41.46611 | 45.02909 | 6922 ft | 290 kts | 92° |
| 2026-04-27 15:05 | 41.46790 | 45.05515 | 6874 ft | 279 kts | 70° |
| 2026-04-27 15:05 | 41.47553 | 45.07828 | 6559 ft | 269 kts | 52° |
| 2026-04-27 15:05 | 41.48756 | 45.09679 | 6005 ft | 261 kts | 39° |
| 2026-04-27 15:05 | 41.50080 | 45.11280 | 5430 ft | 251 kts | 23° |
| 2026-04-27 15:06 | 41.51631 | 45.11971 | 5047 ft | 227 kts | 358° |
| 2026-04-27 15:06 | 41.53105 | 45.11774 | 4853 ft | 202 kts | 337° |
| 2026-04-27 15:06 | 41.54292 | 45.10968 | 4656 ft | 183 kts | 320° |
| 2026-04-27 15:06 | 41.55177 | 45.09891 | 4429 ft | 164 kts | 315° |
| 2026-04-27 15:07 | 41.55998 | 45.08859 | 4232 ft | 159 kts | 315° |
| 2026-04-27 15:07 | 41.56760 | 45.07903 | 4033 ft | 143 kts | 316° |
| 2026-04-27 15:07 | 41.57454 | 45.07030 | 3845 ft | 131 kts | 316° |
| 2026-04-27 15:07 | 41.58097 | 45.06222 | 3686 ft | 123 kts | 316° |
| 2026-04-27 15:08 | 41.58718 | 45.05440 | 3523 ft | 121 kts | 316° |
| 2026-04-27 15:08 | 41.59330 | 45.04670 | 3334 ft | 123 kts | 316° |
| 2026-04-27 15:08 | 41.59947 | 45.03893 | 3172 ft | 122 kts | 314° |
| 2026-04-27 15:08 | 41.60560 | 45.03122 | 2984 ft | 119 kts | 313° |
| 2026-04-27 15:09 | 41.61171 | 45.02353 | 2811 ft | 120 kts | 313° |
| 2026-04-27 15:09 | 41.61791 | 45.01570 | 2633 ft | 123 kts | 312° |
| 2026-04-27 15:09 | 41.62406 | 45.00797 | 2478 ft | 120 kts | 311° |
| 2026-04-27 15:09 | 41.63015 | 45.00027 | 2316 ft | 121 kts | 312° |
| 2026-04-27 15:10 | 41.63627 | 44.99250 | 2185 ft | 121 kts | 313° |
| 2026-04-27 15:10 | 41.64236 | 44.98484 | 2009 ft | 119 kts | 314° |
| 2026-04-27 15:10 | 41.64820 | 44.97750 | 1870 ft | 116 kts | 314° |
| 2026-04-27 15:10 | 41.65414 | 44.97002 | 1683 ft | 116 kts | 316° |
| 2026-04-27 15:11 | 41.66000 | 44.96267 | 1566 ft | 115 kts | 315° |
| 2026-04-27 15:11 | 41.66557 | 44.95559 | 1550 ft | 97 kts | 318° |
| 2026-04-27 15:11 | 41.66918 | 44.95106 | 1559 ft | 46 kts | 317° |
| 2026-04-27 15:11 | 41.67057 | 44.94928 | 1564 ft | 19 kts | 316° |
| 2026-04-27 15:12 | 41.67136 | 44.94829 | 1564 ft | 14 kts | 317° |
| 2026-04-27 15:12 | 41.67219 | 44.94725 | 1566 ft | 18 kts | 317° |
| 2026-04-27 15:12 | 41.67321 | 44.94596 | 1568 ft | 25 kts | 316° |
| 2026-04-27 15:12 | 41.67450 | 44.94430 | 1573 ft | 22 kts | 317° |
| 2026-04-27 15:13 | 41.67539 | 44.94453 | 1577 ft | 13 kts | 69° |
| 2026-04-27 15:13 | 41.67569 | 44.94545 | 1578 ft | 10 kts | 74° |
| 2026-04-27 15:13 | 41.67584 | 44.94628 | 1578 ft | 9 kts | 72° |
| 2026-04-27 15:13 | 41.67604 | 44.94711 | 1576 ft | 10 kts | 72° |
| 2026-04-27 15:14 | 41.67622 | 44.94796 | 1575 ft | 9 kts | 75° |
| 2026-04-27 15:14 | 41.67642 | 44.94877 | 1575 ft | 9 kts | 71° |
| 2026-04-27 15:14 | 41.67662 | 44.94966 | 1574 ft | 13 kts | 75° |
| 2026-04-27 15:14 | 41.67632 | 44.95089 | 1572 ft | 18 kts | 133° |
| 2026-04-27 15:15 | 41.67526 | 44.95238 | 1569 ft | 25 kts | 134° |
| 2026-04-27 15:15 | 41.67411 | 44.95400 | 1565 ft | 23 kts | 133° |
| 2026-04-27 15:15 | 41.67311 | 44.95555 | 1561 ft | 17 kts | 121° |
| 2026-04-27 15:15 | 41.67231 | 44.95675 | 1559 ft | 19 kts | 133° |
| 2026-04-27 15:16 | 41.67134 | 44.95788 | 1556 ft | 18 kts | 134° |
| 2026-04-27 15:16 | 41.67044 | 44.95913 | 1553 ft | 19 kts | 134° |
| 2026-04-27 15:16 | 41.66953 | 44.96041 | 1550 ft | 20 kts | 133° |
| 2026-04-27 15:16 | 41.66904 | 44.96159 | 1541 ft | 14 kts | 136° |
| 2026-04-27 15:17 | 41.66827 | 44.96265 | 1535 ft | 17 kts | 131° |
| 2026-04-27 15:17 | 41.66767 | 44.96351 | 1537 ft | 7 kts | 112° |
| 2026-04-27 15:17 | 41.66795 | 44.96403 | 1533 ft | 5 kts | 42° |
| 2026-04-27 15:17 | 41.66813 | 44.96425 | 1535 ft | 2 kts | 44° |
| 2026-04-27 15:18 | 41.66817 | 44.96431 | 1536 ft | 0 kts | 44° |